createdAt,value
2023-05-17T00:01:43.020Z,2.00
2023-05-17T00:04:09.697Z,2.43
2023-05-17T00:06:36.596Z,2.20
2023-05-17T00:09:03.498Z,2.37
2023-05-17T00:11:30.152Z,2.03
2023-05-17T00:13:56.743Z,2.20
2023-05-17T00:16:23.350Z,2.03
2023-05-17T00:18:50.179Z,1.90
2023-05-17T00:21:16.883Z,2.23
2023-05-17T00:23:43.461Z,2.43
2023-05-17T00:26:10.132Z,2.93
2023-05-17T00:28:36.745Z,2.50
2023-05-17T00:31:03.560Z,2.70
2023-05-17T00:33:30.564Z,2.83
2023-05-17T00:35:57.386Z,2.87
2023-05-17T00:38:23.956Z,2.70
2023-05-17T00:40:50.917Z,3.00
2023-05-17T00:43:17.571Z,3.03
2023-05-17T00:45:44.464Z,2.63
2023-05-17T00:48:11.709Z,2.97
2023-05-17T00:50:38.415Z,3.23
2023-05-17T00:53:05.120Z,2.73
2023-05-17T00:55:32.230Z,3.17
2023-05-17T00:57:59.282Z,3.23
2023-05-17T01:00:28.977Z,3.00
2023-05-17T01:03:01.537Z,2.80
2023-05-17T01:05:29.028Z,3.07
2023-05-17T01:07:56.103Z,3.53
2023-05-17T01:10:38.868Z,3.10
2023-05-17T01:13:40.589Z,3.30
2023-05-17T01:16:19.038Z,3.20
2023-05-17T01:18:56.417Z,2.80
2023-05-17T01:21:31.043Z,3.43
2023-05-17T01:24:25.164Z,3.00
2023-05-17T01:26:53.728Z,3.73
2023-05-17T01:29:25.765Z,3.30
2023-05-17T01:31:53.663Z,3.73
2023-05-17T01:34:29.643Z,3.70
2023-05-17T01:36:57.619Z,3.57
2023-05-17T01:39:24.248Z,3.43
2023-05-17T01:42:07.232Z,3.30
2023-05-17T01:44:43.515Z,3.43
2023-05-17T01:47:16.484Z,3.60
2023-05-17T01:49:47.514Z,3.70
2023-05-17T01:52:17.663Z,3.67
2023-05-17T01:54:56.252Z,3.60
2023-05-17T01:57:28.634Z,3.90
2023-05-17T01:59:59.637Z,4.00
2023-05-17T02:02:26.423Z,4.10
2023-05-17T02:04:53.211Z,4.23
2023-05-17T02:07:19.919Z,3.80
2023-05-17T02:09:46.556Z,3.40
2023-05-17T02:12:13.187Z,3.73
2023-05-17T02:14:39.830Z,4.10
2023-05-17T02:17:06.455Z,4.10
2023-05-17T02:19:33.543Z,4.23
2023-05-17T02:22:00.323Z,3.87
2023-05-17T02:24:27.090Z,3.90
2023-05-17T02:26:53.732Z,3.80
2023-05-17T02:29:21.106Z,4.07
2023-05-17T02:31:47.787Z,3.87
2023-05-17T02:34:14.440Z,4.47
2023-05-17T02:36:41.175Z,3.87
2023-05-17T02:39:07.808Z,4.60
2023-05-17T02:41:34.455Z,4.10
2023-05-17T02:44:01.239Z,4.13
2023-05-17T02:46:27.855Z,5.00
2023-05-17T02:48:54.487Z,6.07
2023-05-17T02:51:21.142Z,4.77
2023-05-17T02:53:47.824Z,4.30
2023-05-17T02:56:14.415Z,3.83
2023-05-17T02:58:41.541Z,3.70
2023-05-17T03:01:09.397Z,3.90
2023-05-17T03:03:36.171Z,4.60
2023-05-17T03:06:04.581Z,4.57
2023-05-17T03:08:31.669Z,3.80
2023-05-17T03:10:58.354Z,3.97
2023-05-17T03:13:25.053Z,3.87
2023-05-17T03:15:51.661Z,3.97
2023-05-17T03:18:18.405Z,4.80
2023-05-17T03:20:45.073Z,3.73
2023-05-17T03:23:11.721Z,3.80
2023-05-17T03:25:38.338Z,3.97
2023-05-17T03:28:05.058Z,4.30
2023-05-17T03:30:31.800Z,4.37
2023-05-17T03:32:58.646Z,4.03
2023-05-17T03:35:25.382Z,4.33
2023-05-17T03:37:52.006Z,4.57
2023-05-17T03:40:18.719Z,4.30
2023-05-17T03:42:45.812Z,4.37
2023-05-17T03:45:13.073Z,4.43
2023-05-17T03:47:39.768Z,4.47
2023-05-17T03:50:06.974Z,3.47
2023-05-17T03:52:33.653Z,4.20
2023-05-17T03:55:00.332Z,4.00
2023-05-17T03:57:26.997Z,4.60
2023-05-17T03:59:53.589Z,4.27
2023-05-17T04:02:20.541Z,4.17
2023-05-17T04:04:51.178Z,4.43
2023-05-17T04:07:17.846Z,4.57
2023-05-17T04:09:44.971Z,4.23
2023-05-17T04:12:11.714Z,3.93
2023-05-17T04:14:38.830Z,4.07
2023-05-17T04:17:05.533Z,4.20
2023-05-17T04:19:32.353Z,4.70
2023-05-17T04:21:59.154Z,4.57
2023-05-17T04:24:25.775Z,4.80
2023-05-17T04:26:52.623Z,4.13
2023-05-17T04:29:19.242Z,4.97
2023-05-17T04:31:48.841Z,3.77
2023-05-17T04:34:15.738Z,4.70
2023-05-17T04:36:42.482Z,4.40
2023-05-17T04:39:09.195Z,4.33
2023-05-17T04:41:35.940Z,4.37
2023-05-17T04:44:04.917Z,4.73
2023-05-17T04:46:32.101Z,4.37
2023-05-17T04:48:58.933Z,4.73
2023-05-17T04:51:26.997Z,4.10
2023-05-17T04:53:53.665Z,4.57
2023-05-17T04:56:20.258Z,4.17
2023-05-17T05:09:49.508Z,3.80
2023-05-17T05:12:16.299Z,3.93
2023-05-17T05:14:42.906Z,4.03
2023-05-17T05:17:09.846Z,4.20
2023-05-17T05:19:36.595Z,4.50
2023-05-17T05:22:03.273Z,4.00
2023-05-17T05:24:29.900Z,4.40
2023-05-17T05:26:56.517Z,4.00
2023-05-17T05:29:23.235Z,3.93
2023-05-17T05:31:49.902Z,3.60
2023-05-17T05:34:16.574Z,3.90
2023-05-17T05:36:43.251Z,3.83
2023-05-17T05:39:10.352Z,4.03
2023-05-17T05:41:37.184Z,4.27
2023-05-17T05:44:04.025Z,3.83
2023-05-17T05:46:30.654Z,4.40
2023-05-17T05:48:57.373Z,3.57
2023-05-17T05:51:24.274Z,3.97
2023-05-17T05:53:51.064Z,3.97
2023-05-17T05:56:17.746Z,4.30
2023-05-17T05:58:45.085Z,4.00
2023-05-17T06:01:11.743Z,3.60
2023-05-17T06:03:38.435Z,3.53
2023-05-17T06:06:05.383Z,3.63
2023-05-17T06:08:32.057Z,3.70
2023-05-17T06:10:58.767Z,3.37
2023-05-17T06:13:26.497Z,3.27
2023-05-17T06:15:53.260Z,2.87
2023-05-17T06:18:20.022Z,3.10
2023-05-17T06:20:46.798Z,3.40
2023-05-17T06:23:13.834Z,3.40
2023-05-17T06:25:40.541Z,3.13
2023-05-17T06:28:09.148Z,2.97
2023-05-17T06:30:36.206Z,3.03
2023-05-17T06:33:03.002Z,2.60
2023-05-17T06:35:35.267Z,2.90
2023-05-17T06:38:07.344Z,2.80
2023-05-17T06:40:34.165Z,3.00
2023-05-17T06:43:02.207Z,2.87
2023-05-17T06:45:28.968Z,3.40
2023-05-17T06:47:55.886Z,2.90
2023-05-17T06:50:22.834Z,3.00
2023-05-17T06:52:49.679Z,2.63
2023-05-17T06:55:16.403Z,2.83
2023-05-17T06:57:43.121Z,2.70
2023-05-17T07:00:11.203Z,2.30
2023-05-17T07:02:38.069Z,3.13
2023-05-17T07:05:06.889Z,2.43
2023-05-17T07:07:33.598Z,3.03
2023-05-17T07:10:00.215Z,2.80
2023-05-17T07:12:26.977Z,2.37
2023-05-17T07:14:53.625Z,2.37
2023-05-17T07:17:20.390Z,2.40
2023-05-17T07:19:50.865Z,2.63
2023-05-17T07:22:18.685Z,2.70
2023-05-17T07:24:46.186Z,2.83
2023-05-17T07:27:12.830Z,2.47
2023-05-17T07:29:39.614Z,2.43
2023-05-17T07:32:06.553Z,2.70
2023-05-17T07:34:33.247Z,3.10
2023-05-17T07:36:59.894Z,2.57
2023-05-17T07:39:26.552Z,2.43
2023-05-17T07:41:53.466Z,2.30
2023-05-17T07:44:21.752Z,2.23
2023-05-17T07:49:15.184Z,2.27
2023-05-17T07:51:41.885Z,2.27
2023-05-17T07:54:08.523Z,2.83
2023-05-17T07:56:35.389Z,2.10
2023-05-17T07:59:02.083Z,2.20
2023-05-17T08:01:28.754Z,2.20
2023-05-17T08:03:55.635Z,2.00
2023-05-17T08:06:22.332Z,2.57
2023-05-17T08:08:49.007Z,2.57
2023-05-17T08:11:15.844Z,2.43
2023-05-17T08:13:42.506Z,2.00
2023-05-17T08:16:14.176Z,2.30
2023-05-17T08:18:42.477Z,3.13
2023-05-17T08:21:09.833Z,2.73
2023-05-17T08:23:36.709Z,2.53
2023-05-17T08:26:03.469Z,2.60
2023-05-17T08:28:32.474Z,2.37
2023-05-17T08:30:59.094Z,2.20
2023-05-17T08:33:26.273Z,2.30
2023-05-17T08:35:55.229Z,2.43
2023-05-17T08:38:22.355Z,2.53
2023-05-17T08:40:56.355Z,2.50
2023-05-17T08:43:27.340Z,1.83
2023-05-17T08:45:57.412Z,2.20
2023-05-17T08:48:24.325Z,2.50
2023-05-17T08:50:54.177Z,2.50
2023-05-17T08:53:21.026Z,3.40
2023-05-17T08:55:49.585Z,2.63
2023-05-17T08:58:27.413Z,2.40
2023-05-17T09:00:56.012Z,2.87
2023-05-17T09:03:23.915Z,2.63
2023-05-17T09:05:52.846Z,2.50
2023-05-17T09:08:23.215Z,3.00
2023-05-17T09:10:50.666Z,2.00
2023-05-17T09:13:17.456Z,2.27
2023-05-17T09:15:47.241Z,2.37
2023-05-17T09:18:16.298Z,2.17
2023-05-17T09:20:51.655Z,2.20
2023-05-17T09:23:21.394Z,2.60
2023-05-17T09:25:49.039Z,2.40
2023-05-17T09:28:19.156Z,2.93
2023-05-17T09:30:49.318Z,2.40
2023-05-17T09:33:18.623Z,2.70
2023-05-17T09:35:45.830Z,2.50
2023-05-17T09:38:13.887Z,2.63
2023-05-17T09:40:42.296Z,2.40
2023-05-17T09:43:09.628Z,2.77
2023-05-17T09:45:36.749Z,2.93
2023-05-17T09:48:11.525Z,2.73
2023-05-17T09:50:47.507Z,3.00
2023-05-17T09:53:25.148Z,2.80
2023-05-17T09:55:57.211Z,2.30
2023-05-17T09:58:24.757Z,2.40
2023-05-17T10:00:53.981Z,2.40
2023-05-17T10:03:21.337Z,2.13
2023-05-17T10:05:52.285Z,2.90
2023-05-17T10:08:23.152Z,2.77
2023-05-17T10:10:53.360Z,2.50
2023-05-17T10:13:24.824Z,2.57
2023-05-17T10:15:53.453Z,2.50
2023-05-17T10:18:21.727Z,2.13
2023-05-17T10:20:49.574Z,2.40
2023-05-17T10:23:17.547Z,2.60
2023-05-17T10:25:45.542Z,6.27
2023-05-17T10:28:14.476Z,2.47
2023-05-17T10:30:43.395Z,2.17
2023-05-17T10:33:13.215Z,2.30
2023-05-17T10:35:43.704Z,2.37
2023-05-17T10:38:11.770Z,2.40
2023-05-17T10:40:40.135Z,2.40
2023-05-17T10:43:08.988Z,2.33
2023-05-17T10:45:39.128Z,2.13
2023-05-17T10:48:07.288Z,2.50
2023-05-17T10:50:47.386Z,2.20
2023-05-17T10:53:21.030Z,2.50
2023-05-17T10:55:47.768Z,2.60
2023-05-17T10:58:17.249Z,2.83
2023-05-17T11:00:49.561Z,2.80
2023-05-17T11:03:26.104Z,2.40
2023-05-17T11:06:22.033Z,2.40
2023-05-17T11:09:08.214Z,2.17
2023-05-17T11:11:34.904Z,2.20
2023-05-17T11:14:04.705Z,2.37
2023-05-17T11:16:37.820Z,2.13
2023-05-17T11:19:12.207Z,2.20
2023-05-17T11:21:49.048Z,2.23
2023-05-17T11:24:34.103Z,2.07
2023-05-17T11:27:02.206Z,2.30
2023-05-17T11:29:30.651Z,2.00
2023-05-17T11:31:57.354Z,2.10
2023-05-17T11:34:28.221Z,2.40
2023-05-17T11:36:56.356Z,2.33
2023-05-17T11:39:24.743Z,2.30
2023-05-17T11:41:53.547Z,2.60
2023-05-17T11:44:30.815Z,2.20
2023-05-17T11:47:10.686Z,2.20
2023-05-17T11:49:39.034Z,2.10
2023-05-17T11:52:07.009Z,2.80
2023-05-17T11:54:34.117Z,2.53
2023-05-17T11:57:02.864Z,2.30
2023-05-17T11:59:29.633Z,2.50
2023-05-17T12:01:56.517Z,2.28
2023-05-17T12:04:25.662Z,2.38
2023-05-17T12:06:55.989Z,2.35
2023-05-17T12:09:23.328Z,2.53
2023-05-17T12:11:50.079Z,2.30
2023-05-17T12:14:21.715Z,2.50
2023-05-17T12:16:52.952Z,2.40
2023-05-17T12:19:22.170Z,2.60
2023-05-17T12:21:49.790Z,2.47
2023-05-17T12:24:16.929Z,2.50
2023-05-17T12:26:45.071Z,2.22
2023-05-17T12:29:13.686Z,2.00
2023-05-17T12:31:48.174Z,2.20
2023-05-17T12:34:17.099Z,2.10
2023-05-17T12:36:44.683Z,2.70
2023-05-17T12:39:13.687Z,2.35
2023-05-17T12:41:41.551Z,2.47
2023-05-17T12:44:15.485Z,2.33
2023-05-17T12:46:43.005Z,2.33
2023-05-17T12:49:11.120Z,2.40
2023-05-17T12:51:45.783Z,2.03
2023-05-17T12:54:16.017Z,2.88
2023-05-17T12:56:46.433Z,2.30
2023-05-17T12:59:20.913Z,2.28
2023-05-17T13:01:56.434Z,2.60
2023-05-17T13:04:31.869Z,1.85
2023-05-17T13:07:01.111Z,2.20
2023-05-17T13:09:31.165Z,2.42
2023-05-17T13:12:03.041Z,2.38
2023-05-17T13:14:46.138Z,2.20
2023-05-17T13:17:22.665Z,2.55
2023-05-17T13:19:49.434Z,2.38
2023-05-17T13:22:16.139Z,2.35
2023-05-17T13:24:44.659Z,2.10
2023-05-17T13:27:11.894Z,2.58
2023-05-17T13:29:41.802Z,2.30
2023-05-17T13:32:10.217Z,2.92
2023-05-17T13:34:37.036Z,2.83
2023-05-17T13:37:04.891Z,2.42
2023-05-17T13:39:31.631Z,2.63
2023-05-17T13:41:59.093Z,2.30
2023-05-17T13:44:26.576Z,2.22
2023-05-17T13:46:53.179Z,2.63
2023-05-17T13:49:20.808Z,2.17
2023-05-17T13:51:47.672Z,2.53
2023-05-17T13:54:14.323Z,2.67
2023-05-17T13:56:40.998Z,2.60
2023-05-17T13:59:07.611Z,2.15
2023-05-17T14:01:34.344Z,2.60
2023-05-17T14:04:01.117Z,3.50
2023-05-17T14:06:28.204Z,2.55
2023-05-17T14:08:55.864Z,2.80
2023-05-17T14:11:22.525Z,2.15
2023-05-17T14:13:49.414Z,2.42
2023-05-17T14:16:16.142Z,2.30
2023-05-17T14:18:43.126Z,2.30
2023-05-17T14:21:10.074Z,2.55
2023-05-17T14:23:36.754Z,2.65
2023-05-17T14:26:07.042Z,2.45
2023-05-17T14:28:36.295Z,2.13
2023-05-17T14:31:03.092Z,2.35
2023-05-17T14:33:29.847Z,2.13
2023-05-17T14:35:56.519Z,1.95
2023-05-17T14:38:23.274Z,2.42
2023-05-17T14:40:49.876Z,2.20
2023-05-17T14:43:16.776Z,2.65
2023-05-17T14:45:43.394Z,2.17
2023-05-17T14:48:10.156Z,2.30
2023-05-17T14:50:36.954Z,2.38
2023-05-17T14:53:03.625Z,2.40
2023-05-17T14:55:30.604Z,2.50
2023-05-17T14:57:57.975Z,2.30
2023-05-17T15:00:25.360Z,2.43
2023-05-17T15:02:52.350Z,2.70
2023-05-17T15:05:19.836Z,2.72
2023-05-17T15:07:47.520Z,2.38
2023-05-17T15:10:14.206Z,2.30
2023-05-17T15:12:40.833Z,2.25
2023-05-17T15:15:08.117Z,2.08
2023-05-17T15:17:34.889Z,2.60
2023-05-17T15:20:01.654Z,2.28
2023-05-17T15:22:29.261Z,2.40
2023-05-17T15:24:57.738Z,2.08
2023-05-17T15:27:24.394Z,2.22
2023-05-17T15:29:51.015Z,2.67
2023-05-17T15:32:17.748Z,2.43
2023-05-17T15:34:45.304Z,2.30
2023-05-17T15:37:12.080Z,2.00
2023-05-17T15:39:38.772Z,2.22
2023-05-17T15:42:05.814Z,1.90
2023-05-17T15:44:32.446Z,2.10
2023-05-17T15:47:01.420Z,2.05
2023-05-17T15:49:29.020Z,2.33
2023-05-17T15:51:55.942Z,2.45
2023-05-17T15:54:22.591Z,2.63
2023-05-17T15:56:49.213Z,3.67
2023-05-17T15:59:16.131Z,3.17
2023-05-17T16:01:50.725Z,6.30
2023-05-17T16:04:17.579Z,2.58
2023-05-17T16:06:44.445Z,2.17
2023-05-17T16:09:11.833Z,2.22
2023-05-17T16:11:38.471Z,3.67
2023-05-17T16:14:05.138Z,4.00
2023-05-17T16:16:31.799Z,4.60
2023-05-17T16:18:58.969Z,2.80
2023-05-17T16:21:26.036Z,3.50
2023-05-17T16:23:52.949Z,5.47
2023-05-17T16:26:19.831Z,3.57
2023-05-17T16:28:46.877Z,4.15
2023-05-17T16:31:13.519Z,2.78
2023-05-17T16:33:41.495Z,2.60
2023-05-17T16:36:08.862Z,2.70
2023-05-17T16:38:35.635Z,2.65
2023-05-17T16:41:03.359Z,2.60
2023-05-17T16:43:30.952Z,2.00
2023-05-17T16:45:57.708Z,2.10
2023-05-17T16:48:24.427Z,2.73
2023-05-17T16:50:51.554Z,3.20
2023-05-17T16:53:18.257Z,2.33
2023-05-17T16:55:44.945Z,2.70
2023-05-17T16:58:11.555Z,2.50
2023-05-17T17:00:38.432Z,2.60
2023-05-17T17:03:08.303Z,2.85
2023-05-17T17:05:36.051Z,2.77
2023-05-17T17:08:02.708Z,2.60
2023-05-17T17:10:29.661Z,2.27
2023-05-17T17:12:56.594Z,2.43
2023-05-17T17:15:23.666Z,2.50
2023-05-17T17:17:50.476Z,2.40
2023-05-17T17:20:17.656Z,2.73
2023-05-17T17:22:44.296Z,2.50
2023-05-17T17:25:11.009Z,2.23
2023-05-17T17:27:37.682Z,2.53
2023-05-17T17:30:05.014Z,2.10
2023-05-17T17:32:31.798Z,2.17
2023-05-17T17:34:58.659Z,2.40
2023-05-17T17:37:25.309Z,2.27
2023-05-17T17:39:51.964Z,2.30
2023-05-17T17:42:19.395Z,2.33
2023-05-17T17:44:46.028Z,2.10
2023-05-17T17:47:12.858Z,2.07
2023-05-17T17:49:39.740Z,2.13
2023-05-17T17:52:06.460Z,2.00
2023-05-17T17:54:33.308Z,2.00
2023-05-17T17:56:59.966Z,2.20
2023-05-17T17:59:26.668Z,2.30
2023-05-17T18:01:53.388Z,2.80
2023-05-17T18:04:20.153Z,2.10
2023-05-17T18:06:47.102Z,2.37
2023-05-17T18:09:13.740Z,2.13
2023-05-17T18:11:40.591Z,2.30
2023-05-17T18:14:08.038Z,2.17
2023-05-17T18:16:34.716Z,2.33
2023-05-17T18:19:01.457Z,2.30
2023-05-17T18:21:29.460Z,2.80
2023-05-17T18:23:56.382Z,2.40
2023-05-17T18:26:23.400Z,2.40
2023-05-17T18:28:50.916Z,2.40
2023-05-17T18:31:18.434Z,2.20
2023-05-17T18:33:45.360Z,2.20
2023-05-17T18:36:12.152Z,2.40
2023-05-17T18:38:38.818Z,2.70
2023-05-17T18:41:05.464Z,3.30
2023-05-17T18:43:32.227Z,2.40
2023-05-17T18:45:59.013Z,2.70
2023-05-17T18:48:26.065Z,2.60
2023-05-17T18:50:52.684Z,2.73
2023-05-17T18:53:19.309Z,2.40
2023-05-17T18:55:45.890Z,2.53
2023-05-17T18:58:12.476Z,2.87
2023-05-17T19:00:39.198Z,2.30
2023-05-17T19:03:05.896Z,2.60
2023-05-17T19:05:32.627Z,2.47
2023-05-17T19:07:59.252Z,2.57
2023-05-17T19:10:26.417Z,2.40
2023-05-17T19:12:53.102Z,2.40
2023-05-17T19:15:20.094Z,2.60
2023-05-17T19:17:49.939Z,2.23
2023-05-17T19:20:16.784Z,2.07
2023-05-17T19:22:43.460Z,2.40
2023-05-17T19:25:10.483Z,2.30
2023-05-17T19:27:37.117Z,2.40
2023-05-17T19:30:04.516Z,2.30
2023-05-17T19:32:33.336Z,2.80
2023-05-17T19:35:01.329Z,2.50
2023-05-17T19:37:28.486Z,3.00
2023-05-17T19:39:55.729Z,2.63
2023-05-17T19:42:23.309Z,2.60
2023-05-17T19:44:50.005Z,2.30
2023-05-17T19:47:20.054Z,3.10
2023-05-17T19:49:46.717Z,2.80
2023-05-17T19:52:13.368Z,3.10
2023-05-17T19:54:40.080Z,3.17
2023-05-17T19:57:06.828Z,3.10
2023-05-17T19:59:34.642Z,3.27
2023-05-17T20:02:01.317Z,2.90
2023-05-17T20:04:28.567Z,2.90
2023-05-17T20:06:55.829Z,2.70
2023-05-17T20:09:26.818Z,2.87
2023-05-17T20:11:54.363Z,2.77
2023-05-17T20:14:21.425Z,2.80
2023-05-17T20:16:48.244Z,3.20
2023-05-17T20:19:15.086Z,3.03
2023-05-17T20:21:45.503Z,3.23
2023-05-17T20:24:12.281Z,2.90
2023-05-17T20:26:41.850Z,3.87
2023-05-17T20:29:08.788Z,3.60
2023-05-17T20:31:36.508Z,3.00
2023-05-17T20:34:04.447Z,3.33
2023-05-17T20:36:31.599Z,3.20
2023-05-17T20:38:58.374Z,3.03
2023-05-17T20:41:25.053Z,2.60
2023-05-17T20:43:54.593Z,2.63
2023-05-17T20:46:21.484Z,3.43
2023-05-17T20:48:53.635Z,3.67
2023-05-17T20:51:22.290Z,4.40
2023-05-17T20:53:49.201Z,4.07
2023-05-17T20:56:17.827Z,4.17
2023-05-17T20:58:44.888Z,5.00
2023-05-17T21:01:11.507Z,4.57
2023-05-17T21:03:39.730Z,4.90
2023-05-17T21:06:07.109Z,5.93
2023-05-17T21:08:34.160Z,5.83
2023-05-17T21:11:00.774Z,4.93
2023-05-17T21:13:27.544Z,4.93
2023-05-17T21:15:55.626Z,5.43
2023-05-17T21:18:23.407Z,4.43
2023-05-17T21:20:51.454Z,4.97
2023-05-17T21:23:18.745Z,4.80
2023-05-17T21:25:45.472Z,4.23
2023-05-17T21:28:12.104Z,4.17
2023-05-17T21:30:38.805Z,4.67
2023-05-17T21:33:05.651Z,5.43
2023-05-17T21:35:32.526Z,4.10
2023-05-17T21:37:59.357Z,3.80
2023-05-17T21:40:26.218Z,4.23
2023-05-17T21:42:53.025Z,4.07
2023-05-17T21:45:19.691Z,3.83
2023-05-17T21:47:46.432Z,3.60
2023-05-17T21:50:13.241Z,3.60
2023-05-17T21:52:40.030Z,4.07
2023-05-17T21:55:07.338Z,3.73
2023-05-17T21:57:36.233Z,3.70
2023-05-17T22:00:05.222Z,3.83
2023-05-17T22:02:34.684Z,3.60
2023-05-17T22:05:01.585Z,3.57
2023-05-17T22:07:28.206Z,3.20
2023-05-17T22:09:55.130Z,3.37
2023-05-17T22:12:25.324Z,3.20
2023-05-17T22:14:54.162Z,3.27
2023-05-17T22:17:29.576Z,2.97
2023-05-17T22:20:03.175Z,3.07
2023-05-17T22:22:34.001Z,2.50
2023-05-17T22:25:00.714Z,2.67
2023-05-17T22:27:27.345Z,2.73
2023-05-17T22:29:54.022Z,2.80
2023-05-17T22:32:20.736Z,2.70
2023-05-17T22:34:47.518Z,2.37
2023-05-17T22:37:14.156Z,2.53
2023-05-17T22:39:41.568Z,2.53
2023-05-17T22:42:08.850Z,2.40
2023-05-17T22:44:36.601Z,3.80
2023-05-17T22:47:03.982Z,2.90
2023-05-17T22:49:34.050Z,2.70
2023-05-17T22:52:05.875Z,2.57
2023-05-17T22:54:36.323Z,2.40
2023-05-17T22:57:04.149Z,2.07
2023-05-17T22:59:31.994Z,2.60
2023-05-17T23:01:58.980Z,3.00
2023-05-17T23:04:26.189Z,2.63
2023-05-17T23:07:04.506Z,2.67
2023-05-17T23:09:33.415Z,2.40
2023-05-17T23:12:05.413Z,2.23
2023-05-17T23:14:34.000Z,2.60
2023-05-17T23:17:03.957Z,2.80
2023-05-17T23:19:31.794Z,2.70
2023-05-17T23:22:02.856Z,3.00
2023-05-17T23:24:29.456Z,3.03
2023-05-17T23:26:56.100Z,2.63
2023-05-17T23:29:22.874Z,2.23
2023-05-17T23:31:50.692Z,2.80
2023-05-17T23:34:17.537Z,2.23
2023-05-17T23:36:44.118Z,2.20
2023-05-17T23:39:10.819Z,2.33
2023-05-17T23:41:37.764Z,2.30
2023-05-17T23:44:07.961Z,2.57
2023-05-17T23:46:34.697Z,2.20
2023-05-17T23:49:02.153Z,2.30
2023-05-17T23:51:28.871Z,2.50
2023-05-17T23:53:55.621Z,2.27
2023-05-17T23:56:23.137Z,3.43
2023-05-17T23:58:49.907Z,2.47
